createdAt,value
2018-01-18T00:01:27.180Z,99498.48
2018-01-18T00:03:54.702Z,99503.13
2018-01-18T00:06:22.206Z,99506.06
2018-01-18T00:08:49.714Z,99502.70
2018-01-18T00:11:17.214Z,99508.58
2018-01-18T00:13:44.728Z,99503.12
2018-01-18T00:16:12.220Z,99507.75
2018-01-18T00:18:39.734Z,99496.81
2018-01-18T00:21:07.257Z,99494.27
2018-01-18T00:23:34.779Z,99489.22
2018-01-18T00:26:02.289Z,99486.67
2018-01-18T00:28:29.794Z,99482.45
2018-01-18T00:30:57.306Z,99480.38
2018-01-18T00:33:25.680Z,99480.77
2018-01-18T00:35:53.184Z,99476.97
2018-01-18T00:38:20.697Z,99471.92
2018-01-18T00:40:48.210Z,99476.55
2018-01-18T00:43:15.702Z,99472.75
2018-01-18T00:45:43.184Z,99479.90
2018-01-18T00:48:10.675Z,99474.00
2018-01-18T00:50:38.183Z,99473.56
2018-01-18T00:53:05.764Z,99466.01
2018-01-18T00:55:33.262Z,99461.34
2018-01-18T00:58:00.740Z,99457.55
2018-01-18T01:00:28.239Z,99458.83
2018-01-18T01:02:55.778Z,99457.97
2018-01-18T01:05:26.200Z,99452.05
2018-01-18T01:07:53.718Z,99443.23
2018-01-18T01:10:21.214Z,99434.78
2018-01-18T01:12:48.736Z,99435.20
2018-01-18T01:15:16.224Z,99435.22
2018-01-18T01:17:44.519Z,99435.66
2018-01-18T01:20:12.258Z,99437.75
2018-01-18T01:22:39.752Z,99439.88
2018-01-18T01:25:07.256Z,99444.49
2018-01-18T01:27:34.763Z,99432.70
2018-01-18T01:30:02.279Z,99425.16
2018-01-18T01:32:29.760Z,99424.30
2018-01-18T01:34:57.258Z,99424.72
2018-01-18T01:37:24.755Z,99428.08
2018-01-18T01:39:52.254Z,99432.34
2018-01-18T01:42:19.767Z,99427.31
2018-01-18T01:44:47.266Z,99428.13
2018-01-18T01:47:14.794Z,99420.99
2018-01-18T01:49:42.281Z,99423.06
2018-01-18T01:52:09.770Z,99420.53
2018-01-18T01:54:37.271Z,99415.06
2018-01-18T01:57:04.755Z,99411.27
2018-01-18T01:59:32.282Z,99407.92
2018-01-18T02:01:59.815Z,99403.72
2018-01-18T02:04:27.326Z,99399.11
2018-01-18T02:06:54.842Z,99395.31
2018-01-18T02:09:22.328Z,99396.14
2018-01-18T02:11:49.889Z,99378.88
2018-01-18T02:14:17.393Z,99378.00
2018-01-18T02:16:44.927Z,99367.91
2018-01-18T02:19:12.444Z,99374.60
2018-01-18T02:21:39.979Z,99368.28
2018-01-18T02:24:07.464Z,99359.86
2018-01-18T02:26:34.948Z,99357.37
2018-01-18T02:29:02.438Z,99356.09
2018-01-18T02:31:29.946Z,99354.85
2018-01-18T02:33:57.439Z,99345.14
2018-01-18T02:36:24.974Z,99348.92
2018-01-18T02:38:52.453Z,99335.05
2018-01-18T02:41:19.976Z,99334.58
2018-01-18T02:43:48.350Z,99329.53
2018-01-18T02:46:15.852Z,99333.31
2018-01-18T02:48:43.350Z,99332.06
2018-01-18T02:51:10.845Z,99324.46
2018-01-18T02:53:38.344Z,99317.34
2018-01-18T02:56:06.189Z,99313.95
2018-01-18T02:58:33.681Z,99314.75
2018-01-18T03:01:01.188Z,99309.33
2018-01-18T03:03:28.678Z,99307.57
2018-01-18T03:05:56.170Z,99304.58
2018-01-18T03:08:23.656Z,99291.11
2018-01-18T03:10:51.137Z,99291.06
2018-01-18T03:13:18.710Z,99273.41
2018-01-18T03:15:46.188Z,99275.11
2018-01-18T03:18:13.694Z,99269.19
2018-01-18T03:20:41.228Z,99268.39
2018-01-18T03:23:08.742Z,99266.33
2018-01-18T03:25:36.260Z,99265.16
2018-01-18T03:28:03.767Z,99274.44
2018-01-18T03:30:31.271Z,99266.81
2018-01-18T03:32:58.848Z,99261.30
2018-01-18T03:35:26.358Z,99250.77
2018-01-18T03:37:53.862Z,99245.24
2018-01-18T03:40:21.370Z,99229.28
2018-01-18T03:42:48.894Z,99216.70
2018-01-18T03:45:16.385Z,99214.55
2018-01-18T03:47:43.870Z,99196.41
2018-01-18T03:50:11.349Z,99182.09
2018-01-18T03:52:38.830Z,99174.12
2018-01-18T03:55:06.308Z,99169.46
2018-01-18T03:57:33.800Z,99166.52
2018-01-18T04:00:01.287Z,99172.83
2018-01-18T04:02:28.779Z,99160.20
2018-01-18T04:04:56.267Z,99155.99
2018-01-18T04:07:26.942Z,99151.38
2018-01-18T04:09:54.680Z,99146.36
2018-01-18T04:12:22.180Z,99141.27
2018-01-18T04:14:49.664Z,99137.02
2018-01-18T04:17:17.158Z,99120.66
2018-01-18T04:19:44.656Z,99102.13
2018-01-18T04:22:12.160Z,99112.23
2018-01-18T04:24:39.664Z,99102.95
2018-01-18T04:27:07.153Z,99103.73
2018-01-18T04:29:34.636Z,99101.66
2018-01-18T04:32:02.176Z,99091.57
2018-01-18T04:34:29.652Z,99096.63
2018-01-18T04:36:57.166Z,99084.42
2018-01-18T04:39:24.706Z,99074.80
2018-01-18T04:41:52.188Z,99067.13
2018-01-18T04:44:19.699Z,99056.98
2018-01-18T04:46:47.192Z,99053.23
2018-01-18T04:49:14.693Z,99038.92
2018-01-18T04:51:42.201Z,99043.12
2018-01-18T04:54:09.697Z,99031.80
2018-01-18T04:56:37.193Z,99024.16
2018-01-18T04:59:04.711Z,99016.98
2018-01-18T05:01:32.194Z,98998.41
2018-01-18T05:03:59.704Z,98985.38
2018-01-18T05:06:27.196Z,98980.33
2018-01-18T05:08:54.696Z,98966.41
2018-01-18T05:11:22.214Z,98956.65
2018-01-18T05:13:49.715Z,98945.56
2018-01-18T05:16:17.214Z,98937.28
2018-01-18T05:18:44.732Z,98925.04
2018-01-18T05:21:12.230Z,98924.69
2018-01-18T05:23:39.755Z,98908.23
2018-01-18T05:26:07.246Z,98906.45
2018-01-18T05:28:34.770Z,98905.16
2018-01-18T05:31:02.266Z,98893.70
2018-01-18T05:33:29.760Z,98900.44
2018-01-18T05:35:57.240Z,98901.67
2018-01-18T05:38:24.722Z,98900.81
2018-01-18T05:40:52.213Z,98891.16
2018-01-18T05:43:19.727Z,98884.38
2018-01-18T05:45:47.232Z,98873.33
2018-01-18T05:48:14.734Z,98855.14
2018-01-18T05:50:42.293Z,98850.56
2018-01-18T05:53:09.808Z,98836.23
2018-01-18T05:55:37.370Z,98817.40
2018-01-18T05:58:04.879Z,98805.50
2018-01-18T06:00:32.391Z,98793.28
2018-01-18T06:02:59.894Z,98782.74
2018-01-18T06:05:27.414Z,98763.41
2018-01-18T06:07:54.894Z,98752.03
2018-01-18T06:10:22.390Z,98731.30
2018-01-18T06:12:49.880Z,98726.17
2018-01-18T06:15:17.376Z,98711.84
2018-01-18T06:17:44.883Z,98692.09
2018-01-18T06:20:12.356Z,98675.66
2018-01-18T06:22:39.861Z,98651.29
2018-01-18T06:25:07.348Z,98636.92
2018-01-18T06:27:34.842Z,98633.55
2018-01-18T06:30:02.328Z,98622.97
2018-01-18T06:32:29.836Z,98616.11
2018-01-18T06:34:57.399Z,98595.52
2018-01-18T06:37:24.918Z,98587.88
2018-01-18T06:39:52.422Z,98581.52
2018-01-18T06:42:19.912Z,98561.70
2018-01-18T06:44:48.122Z,98553.70
2018-01-18T06:47:15.668Z,98527.22
2018-01-18T06:49:43.196Z,98517.93
2018-01-18T06:52:10.701Z,98489.41
2018-01-18T06:54:38.204Z,98469.62
2018-01-18T06:57:05.702Z,98480.15
2018-01-18T06:59:33.242Z,98465.07
2018-01-18T07:02:00.769Z,98448.30
2018-01-18T07:04:28.261Z,98447.89
2018-01-18T07:06:55.783Z,98433.64
2018-01-18T07:09:23.265Z,98416.39
2018-01-18T07:11:50.784Z,98399.21
2018-01-18T07:14:18.308Z,98385.34
2018-01-18T07:16:45.856Z,98361.77
2018-01-18T07:19:13.363Z,98359.66
2018-01-18T07:21:40.880Z,98348.69
2018-01-18T07:24:08.379Z,98320.37
2018-01-18T07:26:35.868Z,98322.05
2018-01-18T07:29:03.388Z,98312.09
2018-01-18T07:31:30.900Z,98316.48
2018-01-18T07:33:58.430Z,98288.23
2018-01-18T07:36:25.935Z,98292.87
2018-01-18T07:38:53.458Z,98267.77
2018-01-18T07:41:20.978Z,98231.78
2018-01-18T07:43:48.499Z,98209.19
2018-01-18T07:46:16.000Z,98181.13
2018-01-18T07:48:43.500Z,98171.16
2018-01-18T07:51:11.005Z,98173.72
2018-01-18T07:53:39.224Z,98159.50
2018-01-18T07:56:06.727Z,98151.48
2018-01-18T07:58:34.225Z,98127.97
2018-01-18T08:01:01.737Z,98104.16
2018-01-18T08:03:34.750Z,98095.37
2018-01-18T08:06:02.250Z,98070.46
2018-01-18T08:08:29.731Z,98075.31
2018-01-18T08:10:57.282Z,98071.09
2018-01-18T08:13:24.828Z,98063.92
2018-01-18T08:15:52.312Z,98019.58
2018-01-18T08:18:19.820Z,98000.43
2018-01-18T08:20:47.304Z,98022.59
2018-01-18T08:23:14.791Z,98023.27
2018-01-18T08:25:42.295Z,98003.77
2018-01-18T08:28:09.811Z,97979.48
2018-01-18T08:30:37.320Z,97974.71
2018-01-18T08:33:04.841Z,97947.80
2018-01-18T08:35:32.342Z,97947.58
2018-01-18T08:37:59.847Z,97941.03
2018-01-18T08:40:27.349Z,97940.41
2018-01-18T08:42:54.862Z,97914.70
2018-01-18T08:45:22.349Z,97909.06
2018-01-18T08:47:49.854Z,97895.67
2018-01-18T08:50:17.348Z,97882.74
2018-01-18T08:52:44.875Z,97853.89
2018-01-18T08:55:12.346Z,97843.77
2018-01-18T08:57:39.829Z,97837.63
2018-01-18T09:00:07.327Z,97828.13
2018-01-18T09:02:34.872Z,97800.82
2018-01-18T09:05:03.169Z,97805.39
2018-01-18T09:07:30.641Z,97789.03
2018-01-18T09:09:58.131Z,97778.02
2018-01-18T09:12:27.130Z,97769.11
2018-01-18T09:14:54.656Z,97757.48
2018-01-18T09:17:22.143Z,97746.21
2018-01-18T09:19:49.657Z,97725.92
2018-01-18T09:22:17.157Z,97723.77
2018-01-18T09:24:44.810Z,97705.39
2018-01-18T09:27:12.302Z,97702.59
2018-01-18T09:29:39.803Z,97696.58
2018-01-18T09:32:07.315Z,97691.65
2018-01-18T09:34:34.831Z,97699.53
2018-01-18T09:37:02.316Z,97671.16
2018-01-18T09:39:29.796Z,97691.02
2018-01-18T09:41:57.293Z,97682.42
2018-01-18T09:44:24.798Z,97656.92
2018-01-18T09:46:52.308Z,97605.06
2018-01-18T09:49:20.308Z,97626.93
2018-01-18T09:51:48.548Z,97622.71
2018-01-18T09:54:16.041Z,97617.83
2018-01-18T09:56:43.555Z,97611.55
2018-01-18T09:59:11.058Z,97610.06
2018-01-18T10:01:38.557Z,97585.11
2018-01-18T10:04:06.048Z,97578.95
2018-01-18T10:06:33.522Z,97572.98
2018-01-18T10:09:01.020Z,97554.48
2018-01-18T10:11:29.370Z,97522.18
2018-01-18T10:13:56.887Z,97523.36
2018-01-18T10:16:24.378Z,97520.87
2018-01-18T10:18:52.632Z,97506.58
2018-01-18T10:21:20.123Z,97523.45
2018-01-18T10:23:48.288Z,97524.96
2018-01-18T10:26:16.744Z,97503.96
2018-01-18T10:28:44.259Z,97489.06
2018-01-18T10:31:12.077Z,97478.67
2018-01-18T10:33:39.557Z,97494.08
2018-01-18T10:36:07.045Z,97504.59
2018-01-18T10:38:34.551Z,97499.05
2018-01-18T10:41:02.033Z,97517.38
2018-01-18T10:43:29.516Z,97480.79
2018-01-18T10:45:57.341Z,97470.52
2018-01-18T10:48:24.829Z,97442.47
2018-01-18T10:50:53.036Z,97439.55
2018-01-18T10:53:20.570Z,97425.40
2018-01-18T10:55:49.170Z,97410.67
2018-01-18T10:58:16.665Z,97407.43
2018-01-18T11:00:44.206Z,97398.84
2018-01-18T11:03:11.728Z,97375.27
2018-01-18T11:05:39.212Z,97377.80
2018-01-18T11:08:06.763Z,97347.80
2018-01-18T11:10:34.273Z,97344.62
2018-01-18T11:13:02.529Z,97351.80
2018-01-18T11:15:30.032Z,97347.93
2018-01-18T11:17:57.523Z,97336.14
2018-01-18T11:20:25.048Z,97336.55
2018-01-18T11:22:52.532Z,97315.52
2018-01-18T11:25:20.045Z,97301.20
2018-01-18T11:27:47.532Z,97316.27
2018-01-18T11:30:15.020Z,97301.86
2018-01-18T11:32:42.518Z,97313.48
2018-01-18T11:35:09.983Z,97290.65
2018-01-18T11:37:37.468Z,97292.39
2018-01-18T11:40:05.403Z,97285.14
2018-01-18T11:42:37.939Z,97269.52
2018-01-18T11:45:05.441Z,97272.66
2018-01-18T11:47:32.936Z,97259.32
2018-01-18T11:50:00.428Z,97253.64
2018-01-18T11:52:27.917Z,97249.33
2018-01-18T11:54:55.406Z,97232.94
2018-01-18T11:57:22.915Z,97239.63
2018-01-18T11:59:50.498Z,97225.80
2018-01-18T12:02:17.996Z,97221.04
2018-01-18T12:04:46.346Z,97218.72
2018-01-18T12:07:13.827Z,97214.70
2018-01-18T12:09:41.304Z,97205.27
2018-01-18T12:12:08.950Z,97193.05
2018-01-18T12:14:36.450Z,97189.34
2018-01-18T12:17:03.940Z,97195.48
2018-01-18T12:19:31.428Z,97228.38
2018-01-18T12:21:58.924Z,97149.56
2018-01-18T12:24:26.420Z,97232.38
2018-01-18T12:26:54.041Z,97219.61
2018-01-18T12:29:21.564Z,97227.30
2018-01-18T12:31:49.049Z,97236.80
2018-01-18T12:34:16.622Z,97228.54
2018-01-18T12:36:45.311Z,97205.72
2018-01-18T12:39:12.875Z,97214.16
2018-01-18T12:41:40.439Z,97221.73
2018-01-18T12:44:07.944Z,97234.75
2018-01-18T12:46:35.435Z,97223.16
2018-01-18T12:49:02.961Z,97231.56
2018-01-18T12:51:30.516Z,97239.69
2018-01-18T12:53:58.218Z,97205.80
2018-01-18T12:56:25.776Z,97234.09
2018-01-18T12:58:53.368Z,97252.10
2018-01-18T13:01:21.528Z,97224.44
2018-01-18T13:03:49.053Z,97235.63
2018-01-18T13:06:16.547Z,97251.42
2018-01-18T13:08:44.716Z,97266.92
2018-01-18T13:11:12.248Z,97281.30
2018-01-18T13:13:40.016Z,97303.11
2018-01-18T13:16:07.540Z,97286.45
2018-01-18T13:18:36.052Z,97311.34
2018-01-18T13:21:03.548Z,97285.89
2018-01-18T13:23:32.015Z,97288.63
2018-01-18T13:25:59.896Z,97320.20
2018-01-18T13:28:27.474Z,97318.09
2018-01-18T13:30:55.010Z,97333.94
2018-01-18T13:33:22.565Z,97303.19
2018-01-18T13:35:50.112Z,97339.50
2018-01-18T13:38:17.666Z,97336.82
2018-01-18T13:40:45.204Z,97379.00
2018-01-18T13:43:12.759Z,97383.72
2018-01-18T13:45:40.261Z,97385.23
2018-01-18T13:48:09.909Z,97405.97
2018-01-18T13:50:37.451Z,97412.25
2018-01-18T13:53:05.003Z,97442.84
2018-01-18T13:55:32.516Z,97471.03
2018-01-18T13:58:00.044Z,97432.30
2018-01-18T14:00:27.557Z,97462.25
2018-01-18T14:02:55.158Z,97479.56
2018-01-18T14:05:22.690Z,97486.58
2018-01-18T14:07:50.208Z,97519.70
2018-01-18T14:10:17.741Z,97551.84
2018-01-18T14:12:45.239Z,97536.60
2018-01-18T14:15:12.784Z,97546.73
2018-01-18T14:17:40.342Z,97549.13
2018-01-18T14:20:07.926Z,97580.13
2018-01-18T14:22:35.448Z,97588.40
2018-01-18T14:25:02.959Z,97610.76
2018-01-18T14:27:30.663Z,97614.30
2018-01-18T14:29:58.160Z,97669.94
2018-01-18T14:32:25.641Z,97647.06
2018-01-18T14:34:53.212Z,97660.89
2018-01-18T14:37:20.731Z,97727.16
2018-01-18T14:39:48.240Z,97732.84
2018-01-18T14:42:15.814Z,97778.61
2018-01-18T14:44:43.320Z,97802.34
2018-01-18T14:47:11.906Z,97799.68
2018-01-18T14:49:39.557Z,97872.84
2018-01-18T14:52:07.150Z,97858.02
2018-01-18T14:54:34.740Z,97892.66
2018-01-18T14:57:02.437Z,97915.94
2018-01-18T14:59:29.945Z,97940.80
2018-01-18T15:01:57.494Z,97914.98
2018-01-18T15:04:25.042Z,97982.31
2018-01-18T15:06:52.558Z,98021.60
2018-01-18T15:09:20.088Z,97999.28
2018-01-18T15:11:47.600Z,98019.55
2018-01-18T15:14:15.121Z,98032.00
2018-01-18T15:16:42.664Z,98077.02
2018-01-18T15:19:10.204Z,98087.93
2018-01-18T15:21:37.824Z,98089.70
2018-01-18T15:24:05.340Z,98113.45
2018-01-18T15:26:32.890Z,98145.97
2018-01-18T15:29:00.396Z,98151.50
2018-01-18T15:31:27.905Z,98167.50
2018-01-18T15:33:55.457Z,98205.62
2018-01-18T15:36:23.105Z,98188.40
2018-01-18T15:38:50.746Z,98203.67
2018-01-18T15:41:18.250Z,98232.55
2018-01-18T15:43:45.771Z,98250.28
2018-01-18T15:46:13.275Z,98246.64
2018-01-18T15:48:40.794Z,98273.67
2018-01-18T15:51:08.371Z,98293.05
2018-01-18T15:53:35.866Z,98325.41
2018-01-18T15:56:03.373Z,98338.47
2018-01-18T15:58:30.852Z,98344.80
2018-01-18T16:00:58.347Z,98344.71
2018-01-18T16:03:25.872Z,98374.55
2018-01-18T16:05:53.507Z,98356.19
2018-01-18T16:08:21.026Z,98434.17
2018-01-18T16:10:48.544Z,98421.02
2018-01-18T16:13:16.034Z,98428.70
2018-01-18T16:15:43.525Z,98443.03
2018-01-18T16:18:11.018Z,98470.92
2018-01-18T16:20:39.383Z,98435.84
2018-01-18T16:23:07.002Z,98480.05
2018-01-18T16:25:35.449Z,98491.20
2018-01-18T16:28:02.972Z,98498.05
2018-01-18T16:30:30.462Z,98507.78
2018-01-18T16:32:58.930Z,98512.05
2018-01-18T16:35:26.481Z,98517.66
2018-01-18T16:37:53.984Z,98548.91
2018-01-18T16:40:21.484Z,98553.80
2018-01-18T16:42:49.161Z,98560.93
2018-01-18T16:45:16.686Z,98576.38
2018-01-18T16:47:44.430Z,98593.79
2018-01-18T16:50:12.056Z,98615.70
2018-01-18T16:52:40.179Z,98622.95
2018-01-18T16:55:07.909Z,98619.66
2018-01-18T16:57:35.527Z,98645.25
2018-01-18T17:00:03.243Z,98662.92
2018-01-18T17:02:30.906Z,98668.17
2018-01-18T17:04:58.489Z,98669.95
2018-01-18T17:07:26.122Z,98682.58
2018-01-18T17:09:53.740Z,98693.31
2018-01-18T17:12:22.751Z,98707.76
2018-01-18T17:14:50.405Z,98707.25
2018-01-18T17:17:18.774Z,98716.58
2018-01-18T17:19:46.331Z,98723.66
2018-01-18T17:22:13.888Z,98728.30
2018-01-18T17:24:43.653Z,98729.09
2018-01-18T17:27:11.245Z,98737.51
2018-01-18T17:29:38.997Z,98745.16
2018-01-18T17:32:06.580Z,98752.25
2018-01-18T17:34:34.079Z,98752.98
2018-01-18T17:37:01.590Z,98760.49
2018-01-18T17:39:29.097Z,98763.81
2018-01-18T17:41:56.852Z,98773.48
2018-01-18T17:44:24.385Z,98769.70
2018-01-18T17:46:51.898Z,98781.84
2018-01-18T17:49:21.649Z,98778.52
2018-01-18T17:51:49.697Z,98794.88
2018-01-18T17:54:18.921Z,98791.11
2018-01-18T17:56:46.427Z,98791.53
2018-01-18T17:59:14.060Z,98804.56
2018-01-18T18:01:41.572Z,98808.86
2018-01-18T18:04:09.728Z,98810.98
2018-01-18T18:06:37.360Z,98816.98
2018-01-18T18:09:04.856Z,98831.38
2018-01-18T18:11:32.394Z,98826.73
2018-01-18T18:13:59.936Z,98838.59
2018-01-18T18:16:27.431Z,98838.55
2018-01-18T18:18:54.944Z,98842.02
2018-01-18T18:21:22.591Z,98850.48
2018-01-18T18:23:50.107Z,98857.19
2018-01-18T18:26:18.243Z,98855.55
2018-01-18T18:28:45.823Z,98862.30
2018-01-18T18:31:13.380Z,98867.73
2018-01-18T18:33:40.948Z,98869.02
2018-01-18T18:36:08.473Z,98880.33
2018-01-18T18:38:36.034Z,98878.73
2018-01-18T18:41:03.516Z,98885.91
2018-01-18T18:43:31.033Z,98879.22
2018-01-18T18:45:58.565Z,98886.39
2018-01-18T18:48:26.167Z,98890.14
2018-01-18T18:50:53.676Z,98902.85
2018-01-18T18:53:21.216Z,98894.92
2018-01-18T18:55:48.752Z,98900.81
2018-01-18T18:58:16.272Z,98906.38
2018-01-18T19:00:43.824Z,98914.84
2018-01-18T19:03:11.330Z,98919.84
2018-01-18T19:05:38.842Z,98926.21
2018-01-18T19:08:06.372Z,98929.16
2018-01-18T19:10:33.905Z,98937.17
2018-01-18T19:13:01.409Z,98937.20
2018-01-18T19:15:28.928Z,98948.17
2018-01-18T19:17:57.158Z,98942.69
2018-01-18T19:20:24.722Z,98946.14
2018-01-18T19:22:52.240Z,98958.37
2018-01-18T19:25:20.122Z,98950.35
2018-01-18T19:27:49.173Z,98953.24
2018-01-18T19:30:16.704Z,98960.02
2018-01-18T19:32:44.272Z,98969.75
2018-01-18T19:35:11.756Z,98963.41
2018-01-18T19:37:39.263Z,98962.61
2018-01-18T19:40:06.811Z,98965.13
2018-01-18T19:42:34.367Z,98973.11
2018-01-18T19:45:01.950Z,98972.38
2018-01-18T19:47:29.456Z,98975.72
2018-01-18T19:49:57.223Z,98972.36
2018-01-18T19:52:24.719Z,98981.23
2018-01-18T19:54:52.244Z,98982.52
2018-01-18T19:57:19.787Z,98993.45
2018-01-18T19:59:47.291Z,98997.20
2018-01-18T20:02:14.805Z,98998.83
2018-01-18T20:04:42.382Z,99000.09
2018-01-18T20:07:09.879Z,99008.46
2018-01-18T20:09:37.420Z,99013.48
2018-01-18T20:12:05.864Z,99015.96
2018-01-18T20:14:33.417Z,99011.77
2018-01-18T20:17:01.828Z,99016.75
2018-01-18T20:19:29.325Z,99022.22
2018-01-18T20:21:56.825Z,99031.05
2018-01-18T20:24:24.429Z,99027.22
2018-01-18T20:26:51.991Z,99038.23
2018-01-18T20:29:19.541Z,99041.13
2018-01-18T20:31:47.120Z,99044.06
2018-01-18T20:34:14.658Z,99044.50
2018-01-18T20:36:42.137Z,99050.78
2018-01-18T20:39:09.656Z,99057.05
2018-01-18T20:41:37.197Z,99059.98
2018-01-18T20:44:04.705Z,99063.28
2018-01-18T20:46:32.232Z,99068.30
2018-01-18T20:48:59.745Z,99067.91
2018-01-18T20:51:27.278Z,99067.48
2018-01-18T20:53:54.838Z,99069.97
2018-01-18T20:56:22.363Z,99070.36
2018-01-18T20:58:49.900Z,99079.28
2018-01-18T21:01:17.409Z,99075.05
2018-01-18T21:03:45.140Z,99088.13
2018-01-18T21:06:12.636Z,99093.14
2018-01-18T21:08:40.139Z,99094.80
2018-01-18T21:11:07.639Z,99096.90
2018-01-18T21:13:35.120Z,99099.81
2018-01-18T21:16:02.645Z,99104.44
2018-01-18T21:18:30.133Z,99110.34
2018-01-18T21:20:57.634Z,99102.31
2018-01-18T21:23:25.619Z,99101.89
2018-01-18T21:25:53.571Z,99111.16
2018-01-18T21:28:21.305Z,99111.13
2018-01-18T21:30:49.139Z,99111.06
2018-01-18T21:33:16.632Z,99115.32
2018-01-18T21:35:44.158Z,99117.41
2018-01-18T21:38:11.648Z,99116.18
2018-01-18T21:40:39.149Z,99117.48
2018-01-18T21:43:06.643Z,99122.13
2018-01-18T21:45:34.143Z,99119.20
2018-01-18T21:48:01.645Z,99127.23
2018-01-18T21:50:29.136Z,99119.28
2018-01-18T21:52:56.660Z,99115.52
2018-01-18T21:55:24.152Z,99123.49
2018-01-18T21:57:51.715Z,99121.41
2018-01-18T22:00:19.205Z,99121.39
2018-01-18T22:02:46.687Z,99120.53
2018-01-18T22:05:14.194Z,99106.28
2018-01-18T22:07:41.695Z,99112.20
2018-01-18T22:10:09.366Z,99111.77
2018-01-18T22:12:37.822Z,99115.98
2018-01-18T22:15:05.393Z,99111.77
2018-01-18T22:17:32.895Z,99109.64
2018-01-18T22:20:00.381Z,99113.41
2018-01-18T22:22:27.895Z,99119.74
2018-01-18T22:24:55.406Z,99114.30
2018-01-18T22:27:22.934Z,99118.48
2018-01-18T22:29:50.408Z,99123.53
2018-01-18T22:32:17.886Z,99114.27
2018-01-18T22:34:45.356Z,99128.19
2018-01-18T22:37:12.836Z,99139.55
2018-01-18T22:39:40.325Z,99135.77
2018-01-18T22:42:07.821Z,99136.92
2018-01-18T22:44:35.308Z,99137.39
2018-01-18T22:47:02.879Z,99142.47
2018-01-18T22:49:30.444Z,99140.37
2018-01-18T22:51:57.952Z,99145.05
2018-01-18T22:54:25.444Z,99142.06
2018-01-18T22:56:52.920Z,99142.48
2018-01-18T22:59:20.444Z,99136.13
2018-01-18T23:01:47.934Z,99142.89
2018-01-18T23:04:16.097Z,99144.97
2018-01-18T23:06:43.595Z,99145.02
2018-01-18T23:09:11.097Z,99151.31
2018-01-18T23:11:38.572Z,99144.62
2018-01-18T23:14:06.080Z,99144.99
2018-01-18T23:16:33.567Z,99155.55
2018-01-18T23:19:01.078Z,99154.70
2018-01-18T23:21:28.588Z,99153.86
2018-01-18T23:23:56.261Z,99150.92
2018-01-18T23:26:23.754Z,99153.39
2018-01-18T23:28:51.301Z,99157.67
2018-01-18T23:31:18.806Z,99158.09
2018-01-18T23:33:46.302Z,99165.26
2018-01-18T23:36:13.780Z,99173.70
2018-01-18T23:38:41.501Z,99175.80
2018-01-18T23:41:08.985Z,99175.48
2018-01-18T23:43:36.481Z,99175.84
2018-01-18T23:46:03.976Z,99183.45
2018-01-18T23:48:31.479Z,99179.23
2018-01-18T23:50:58.970Z,99183.91
2018-01-18T23:53:26.462Z,99181.79
2018-01-18T23:55:53.987Z,99187.26
2018-01-18T23:58:21.474Z,99189.86
